createdAt,value
2019-05-15T00:01:13.080Z,12.53
2019-05-15T00:03:39.424Z,12.33
2019-05-15T00:06:08.426Z,11.47
2019-05-15T00:08:34.425Z,12.07
2019-05-15T00:11:00.762Z,11.00
2019-05-15T00:13:28.264Z,11.43
2019-05-15T00:15:54.849Z,10.97
2019-05-15T00:18:21.281Z,11.20
2019-05-15T00:20:49.612Z,11.37
2019-05-15T00:23:18.177Z,11.67
2019-05-15T00:25:43.754Z,11.97
2019-05-15T00:28:10.021Z,12.33
2019-05-15T00:30:38.491Z,11.30
2019-05-15T00:33:04.486Z,11.37
2019-05-15T00:35:30.919Z,12.23
2019-05-15T00:37:58.526Z,11.63
2019-05-15T00:40:25.013Z,10.77
2019-05-15T00:42:51.547Z,11.27
2019-05-15T00:45:18.565Z,13.03
2019-05-15T00:47:44.878Z,9.97
2019-05-15T00:50:11.166Z,9.30
2019-05-15T00:52:39.050Z,10.83
2019-05-15T00:55:05.861Z,9.10
2019-05-15T00:57:32.338Z,9.73
2019-05-15T00:59:58.992Z,9.80
2019-05-15T01:02:25.510Z,10.23
2019-05-15T01:04:51.685Z,10.57
2019-05-15T01:07:18.847Z,9.83
2019-05-15T01:09:45.171Z,10.37
2019-05-15T01:12:11.548Z,11.30
2019-05-15T01:14:38.584Z,10.10
2019-05-15T01:17:04.923Z,9.17
2019-05-15T01:19:31.097Z,9.50
2019-05-15T01:21:58.721Z,9.63
2019-05-15T01:24:25.178Z,9.63
2019-05-15T01:26:51.351Z,9.23
2019-05-15T01:29:18.223Z,10.33
2019-05-15T01:31:44.546Z,10.07
2019-05-15T01:34:10.750Z,9.47
2019-05-15T01:36:38.229Z,9.97
2019-05-15T01:39:07.848Z,10.80
2019-05-15T01:41:33.518Z,10.90
2019-05-15T01:44:00.731Z,10.17
2019-05-15T01:46:28.519Z,10.03
2019-05-15T01:48:54.878Z,9.67
2019-05-15T01:51:21.075Z,9.67
2019-05-15T01:53:48.087Z,10.50
2019-05-15T01:56:14.419Z,10.27
2019-05-15T01:58:41.054Z,10.87
2019-05-15T02:01:08.159Z,10.33
2019-05-15T02:03:34.719Z,12.90
2019-05-15T02:06:00.922Z,11.03
2019-05-15T02:08:28.512Z,10.43
2019-05-15T02:10:54.885Z,11.80
2019-05-15T02:13:21.071Z,11.07
2019-05-15T02:15:48.258Z,10.60
2019-05-15T02:18:14.619Z,11.83
2019-05-15T02:20:40.826Z,10.70
2019-05-15T02:23:11.643Z,11.60
2019-05-15T02:25:35.586Z,11.60
2019-05-15T02:28:01.905Z,10.53
2019-05-15T02:30:33.349Z,11.67
2019-05-15T02:32:58.984Z,10.83
2019-05-15T02:35:24.092Z,11.47
2019-05-15T02:37:50.263Z,11.77
2019-05-15T02:40:18.995Z,11.47
2019-05-15T02:42:44.623Z,11.53
2019-05-15T02:45:10.870Z,10.37
2019-05-15T02:47:39.405Z,9.17
2019-05-15T02:50:05.782Z,11.27
2019-05-15T02:52:31.954Z,12.00
2019-05-15T02:54:59.921Z,10.50
2019-05-15T02:57:29.729Z,11.43
2019-05-15T02:59:54.539Z,12.70
2019-05-15T03:02:20.805Z,12.10
2019-05-15T03:04:48.548Z,11.57
2019-05-15T03:07:15.041Z,11.97
2019-05-15T03:09:41.158Z,11.43
2019-05-15T03:12:09.133Z,10.97
2019-05-15T03:14:35.340Z,12.37
2019-05-15T03:17:01.519Z,11.87
2019-05-15T03:19:29.849Z,11.33
2019-05-15T03:21:55.807Z,10.53
2019-05-15T03:24:21.970Z,10.10
2019-05-15T03:26:49.624Z,11.00
2019-05-15T03:29:16.158Z,10.67
2019-05-15T03:31:58.547Z,9.90
2019-05-15T03:34:20.456Z,11.43
2019-05-15T03:36:44.405Z,10.40
2019-05-15T03:39:09.473Z,9.90
2019-05-15T03:41:34.315Z,10.23
2019-05-15T03:44:00.503Z,9.73
2019-05-15T03:46:29.099Z,9.40
2019-05-15T03:48:54.683Z,10.07
2019-05-15T03:51:20.866Z,10.63
2019-05-15T03:53:49.784Z,9.40
2019-05-15T03:56:15.036Z,9.40
2019-05-15T03:58:41.220Z,11.03
2019-05-15T04:01:27.907Z,10.17
2019-05-15T04:03:38.969Z,8.97
2019-05-15T04:06:04.394Z,8.07
2019-05-15T04:08:30.565Z,8.90
2019-05-15T04:10:59.630Z,8.80
2019-05-15T04:13:25.046Z,8.23
2019-05-15T04:15:51.219Z,8.57
2019-05-15T04:18:19.884Z,9.60
2019-05-15T04:20:45.448Z,8.73
2019-05-15T04:23:15.130Z,8.83
2019-05-15T04:25:41.367Z,8.50
2019-05-15T04:28:09.625Z,8.60
2019-05-15T04:30:38.920Z,7.70
2019-05-15T04:33:03.685Z,7.37
2019-05-15T04:35:29.867Z,7.87
2019-05-15T04:37:56.061Z,7.60
2019-05-15T04:40:23.251Z,7.47
2019-05-15T04:42:49.956Z,7.53
2019-05-15T04:45:19.161Z,7.97
2019-05-15T04:47:44.285Z,7.40
2019-05-15T04:50:10.572Z,7.97
2019-05-15T04:52:39.331Z,8.43
2019-05-15T04:55:05.625Z,8.13
2019-05-15T04:57:34.135Z,7.73
2019-05-15T04:59:59.707Z,7.83
2019-05-15T05:02:31.101Z,7.80
2019-05-15T05:04:54.488Z,8.40
2019-05-15T05:07:20.671Z,7.57
2019-05-15T05:09:48.881Z,8.07
2019-05-15T05:12:14.843Z,7.67
2019-05-15T05:14:41.304Z,7.97
2019-05-15T05:17:09.191Z,8.03
2019-05-15T05:19:35.480Z,8.17
2019-05-15T05:22:01.658Z,8.00
2019-05-15T05:24:28.177Z,8.30
2019-05-15T05:26:54.418Z,9.57
2019-05-15T05:29:20.598Z,9.03
2019-05-15T05:31:49.187Z,9.00
2019-05-15T05:34:14.974Z,10.00
2019-05-15T05:36:41.356Z,8.53
2019-05-15T05:39:09.648Z,9.03
2019-05-15T05:41:39.004Z,9.23
2019-05-15T05:44:04.314Z,9.23
2019-05-15T05:46:30.546Z,9.20
2019-05-15T05:48:58.291Z,9.80
2019-05-15T05:51:24.600Z,8.73
2019-05-15T05:53:50.806Z,9.43
2019-05-15T05:56:18.096Z,9.67
2019-05-15T05:58:44.559Z,9.50
2019-05-15T06:01:10.966Z,9.40
2019-05-15T06:03:38.601Z,9.23
2019-05-15T06:06:05.018Z,9.57
2019-05-15T06:08:31.430Z,9.37
2019-05-15T06:10:58.512Z,9.97
2019-05-15T06:13:24.966Z,9.90
2019-05-15T06:15:51.355Z,10.10
2019-05-15T06:18:19.758Z,10.37
2019-05-15T06:20:49.092Z,8.47
2019-05-15T06:23:14.625Z,8.63
2019-05-15T06:25:40.966Z,8.50
2019-05-15T06:28:09.137Z,9.87
2019-05-15T06:30:35.236Z,8.57
2019-05-15T06:33:09.100Z,9.30
2019-05-15T06:35:31.295Z,8.60
2019-05-15T06:37:59.111Z,10.17
2019-05-15T06:40:25.610Z,9.87
2019-05-15T06:42:51.787Z,9.17
2019-05-15T06:45:18.887Z,9.93
2019-05-15T06:47:45.162Z,8.60
2019-05-15T06:50:11.433Z,7.87
2019-05-15T06:52:38.193Z,7.47
2019-05-15T06:55:05.726Z,7.73
2019-05-15T06:57:31.907Z,9.47
2019-05-15T06:59:58.114Z,7.53
2019-05-15T07:02:24.289Z,8.53
2019-05-15T07:04:51.872Z,8.57
2019-05-15T07:07:18.324Z,8.87
2019-05-15T07:09:44.560Z,7.17
2019-05-15T07:12:10.739Z,8.00
2019-05-15T07:14:38.011Z,7.97
2019-05-15T07:17:04.423Z,8.23
2019-05-15T07:19:30.592Z,9.67
2019-05-15T07:21:58.067Z,9.33
2019-05-15T07:24:25.987Z,9.73
2019-05-15T07:26:52.090Z,9.00
2019-05-15T07:29:18.829Z,9.27
2019-05-15T07:31:47.716Z,8.27
2019-05-15T07:34:13.355Z,8.47
2019-05-15T07:36:39.555Z,7.93
2019-05-15T07:39:08.338Z,8.33
2019-05-15T07:41:34.814Z,7.17
2019-05-15T07:44:01.236Z,6.90
2019-05-15T07:46:28.814Z,7.30
2019-05-15T07:48:55.154Z,7.17
2019-05-15T07:51:21.365Z,5.87
2019-05-15T07:53:49.073Z,7.37
2019-05-15T07:56:17.975Z,6.33
2019-05-15T07:58:43.618Z,7.27
2019-05-15T08:01:10.211Z,6.90
2019-05-15T08:03:47.155Z,7.00
2019-05-15T08:06:05.637Z,6.90
2019-05-15T08:08:32.011Z,6.67
2019-05-15T08:10:58.206Z,7.00
2019-05-15T08:13:24.419Z,6.60
2019-05-15T08:15:50.690Z,6.77
2019-05-15T08:18:18.131Z,7.73
2019-05-15T08:20:49.151Z,6.43
2019-05-15T08:23:15.415Z,5.33
2019-05-15T08:25:41.893Z,5.83
2019-05-15T08:28:08.991Z,4.50
2019-05-15T08:30:35.288Z,6.30
2019-05-15T08:33:01.482Z,6.73
2019-05-15T08:35:29.232Z,6.40
2019-05-15T08:37:57.977Z,7.10
2019-05-15T08:40:23.544Z,8.73
2019-05-15T08:42:57.094Z,8.37
2019-05-15T08:45:19.964Z,9.23
2019-05-15T08:47:48.968Z,8.77
2019-05-15T08:50:14.584Z,9.67
2019-05-15T08:52:40.849Z,10.17
2019-05-15T08:55:08.540Z,9.83
2019-05-15T08:57:35.305Z,8.97
2019-05-15T09:00:03.298Z,9.00
2019-05-15T09:02:29.479Z,8.80
2019-05-15T09:04:57.906Z,8.67
2019-05-15T09:07:24.026Z,8.13
2019-05-15T09:09:50.206Z,8.43
2019-05-15T09:12:18.775Z,8.40
2019-05-15T09:14:44.546Z,8.53
2019-05-15T09:17:10.739Z,8.57
2019-05-15T09:19:38.781Z,8.77
2019-05-15T09:22:04.943Z,7.53
2019-05-15T09:24:31.115Z,8.17
2019-05-15T09:26:59.574Z,7.23
2019-05-15T09:29:25.323Z,7.33
2019-05-15T09:31:51.522Z,6.67
2019-05-15T09:34:18.544Z,6.47
2019-05-15T09:36:45.616Z,5.50
2019-05-15T09:39:13.463Z,3.83
2019-05-15T09:41:40.007Z,3.67
2019-05-15T09:44:08.038Z,3.20
2019-05-15T09:46:34.150Z,2.60
2019-05-15T09:49:00.354Z,2.80
2019-05-15T09:51:28.861Z,3.00
2019-05-15T09:53:54.598Z,2.73
2019-05-15T09:56:21.058Z,2.20
2019-05-15T09:58:48.968Z,3.33
2019-05-15T10:01:15.409Z,3.67
2019-05-15T10:03:44.342Z,3.47
2019-05-15T10:06:09.698Z,4.43
2019-05-15T10:08:39.653Z,4.50
2019-05-15T10:11:05.238Z,3.70
2019-05-15T10:13:32.009Z,4.90
2019-05-15T10:15:59.202Z,6.57
2019-05-15T10:18:28.053Z,6.63
2019-05-15T10:20:53.579Z,7.20
2019-05-15T10:23:20.086Z,6.97
2019-05-15T10:25:48.593Z,5.90
2019-05-15T10:28:15.391Z,7.03
2019-05-15T10:30:43.210Z,7.43
2019-05-15T10:33:09.536Z,7.43
2019-05-15T10:35:35.708Z,8.00
2019-05-15T10:38:02.003Z,8.07
2019-05-15T10:40:29.548Z,9.10
2019-05-15T10:42:56.091Z,9.70
2019-05-15T10:45:22.760Z,9.20
2019-05-15T10:47:49.772Z,10.77
2019-05-15T10:50:18.875Z,10.70
2019-05-15T10:52:44.330Z,9.70
2019-05-15T10:55:12.349Z,10.10
2019-05-15T10:57:43.325Z,10.10
2019-05-15T11:00:07.953Z,9.43
2019-05-15T11:02:34.487Z,9.57
2019-05-15T11:05:00.665Z,8.53
2019-05-15T11:07:28.425Z,9.17
2019-05-15T11:09:58.057Z,9.27
2019-05-15T11:12:23.895Z,7.97
2019-05-15T11:14:51.979Z,8.30
2019-05-15T11:17:18.278Z,7.97
2019-05-15T11:19:44.454Z,6.43
2019-05-15T11:22:10.627Z,4.77
2019-05-15T11:24:38.515Z,4.07
2019-05-15T11:27:05.198Z,5.57
2019-05-15T11:29:31.366Z,5.23
2019-05-15T11:31:58.086Z,7.17
2019-05-15T11:34:24.752Z,9.07
2019-05-15T11:36:51.112Z,9.30
2019-05-15T11:39:18.199Z,7.17
2019-05-15T11:41:44.914Z,6.87
2019-05-15T11:44:11.092Z,7.80
2019-05-15T11:46:39.044Z,9.60
2019-05-15T11:49:05.443Z,10.13
2019-05-15T11:51:31.618Z,10.47
2019-05-15T11:53:58.778Z,10.43
2019-05-15T11:56:25.470Z,9.20
2019-05-15T11:58:51.647Z,8.33
2019-05-15T12:01:19.107Z,9.40
2019-05-15T12:03:46.095Z,9.63
2019-05-15T12:06:18.684Z,10.53
2019-05-15T12:08:40.562Z,9.87
2019-05-15T12:11:09.941Z,9.63
2019-05-15T12:13:35.115Z,10.30
2019-05-15T12:16:01.409Z,9.13
2019-05-15T12:18:28.480Z,8.20
2019-05-15T12:20:54.980Z,8.50
2019-05-15T12:23:21.197Z,7.87
2019-05-15T12:25:48.839Z,9.07
2019-05-15T12:28:15.250Z,7.93
2019-05-15T12:30:41.563Z,8.73
2019-05-15T12:33:09.263Z,9.50
2019-05-15T12:35:39.211Z,7.77
2019-05-15T12:38:03.827Z,8.40
2019-05-15T13:00:14.607Z,9.20
2019-05-15T13:02:40.782Z,11.90
2019-05-15T13:05:08.465Z,10.77
2019-05-15T13:07:37.803Z,12.63
2019-05-15T13:10:04.645Z,12.90
2019-05-15T13:12:31.583Z,12.63
2019-05-15T13:14:59.084Z,12.80
2019-05-15T13:17:25.487Z,12.10
2019-05-15T13:19:51.646Z,12.27
2019-05-15T13:22:24.380Z,11.67
2019-05-15T13:24:48.116Z,13.77
2019-05-15T13:27:13.867Z,13.20
2019-05-15T13:29:40.002Z,12.73
2019-05-15T13:32:08.071Z,14.20
2019-05-15T13:34:34.354Z,12.83
2019-05-15T13:37:00.563Z,13.20
2019-05-15T13:39:28.452Z,11.30
2019-05-15T13:41:54.809Z,11.77
2019-05-15T13:44:21.099Z,11.90
2019-05-15T13:46:47.382Z,9.83
2019-05-15T13:49:13.654Z,10.37
2019-05-15T13:51:39.852Z,9.87
2019-05-15T13:54:08.116Z,8.83
2019-05-15T13:56:34.018Z,8.33
2019-05-15T13:59:00.361Z,8.00
2019-05-15T14:01:28.620Z,8.83
2019-05-15T14:03:54.781Z,8.37
2019-05-15T14:06:20.986Z,7.20
2019-05-15T14:08:48.746Z,7.80
2019-05-15T14:11:15.138Z,8.30
2019-05-15T14:13:41.822Z,7.80
2019-05-15T14:16:09.617Z,6.93
2019-05-15T14:18:35.932Z,7.93
2019-05-15T14:21:02.964Z,6.70
2019-05-15T14:23:29.678Z,6.33
2019-05-15T14:25:58.688Z,6.83
2019-05-15T14:28:24.098Z,6.80
2019-05-15T14:30:50.334Z,7.67
2019-05-15T14:33:16.457Z,7.17
2019-05-15T14:35:42.789Z,5.97
2019-05-15T14:38:10.345Z,6.53
2019-05-15T14:40:36.821Z,6.40
2019-05-15T14:43:03.026Z,6.50
2019-05-15T14:45:29.298Z,6.20
2019-05-15T14:47:57.993Z,6.30
2019-05-15T14:50:23.888Z,6.20
2019-05-15T14:52:50.262Z,5.63
2019-05-15T14:55:16.644Z,5.23
2019-05-15T14:57:42.842Z,5.10
2019-05-15T15:00:09.367Z,4.53
2019-05-15T15:02:35.492Z,4.20
2019-05-15T15:05:01.687Z,4.27
2019-05-15T15:07:28.478Z,3.60
2019-05-15T15:09:54.739Z,3.87
2019-05-15T15:12:21.251Z,3.63
2019-05-15T15:14:48.559Z,3.63
2019-05-15T15:17:15.011Z,3.07
2019-05-15T15:19:41.529Z,3.67
2019-05-15T15:22:08.682Z,3.63
2019-05-15T15:24:35.127Z,3.43
2019-05-15T15:27:01.426Z,3.47
2019-05-15T15:29:28.312Z,3.97
2019-05-15T15:31:54.483Z,3.27
2019-05-15T15:34:20.700Z,3.87
2019-05-15T15:36:48.461Z,3.13
2019-05-15T15:39:14.749Z,3.47
2019-05-15T15:41:41.094Z,2.93
2019-05-15T15:44:08.639Z,4.10
2019-05-15T15:46:35.053Z,2.93
2019-05-15T15:49:01.251Z,3.30
2019-05-15T15:51:28.597Z,2.80
2019-05-15T15:53:54.890Z,2.57
2019-05-15T15:56:21.086Z,2.93
2019-05-15T15:58:48.750Z,2.57
2019-05-15T16:01:15.343Z,3.17
2019-05-15T16:03:41.743Z,2.70
2019-05-15T16:06:08.110Z,2.97
2019-05-15T16:08:34.290Z,2.63
2019-05-15T16:11:02.371Z,2.80
2019-05-15T16:13:29.183Z,2.57
2019-05-15T16:15:57.892Z,2.97
2019-05-15T16:18:24.227Z,3.23
2019-05-15T16:20:50.385Z,2.20
2019-05-15T16:23:18.618Z,2.30
2019-05-15T16:25:44.658Z,2.50
2019-05-15T16:28:11.038Z,2.53
2019-05-15T16:30:50.767Z,3.27
2019-05-15T16:33:05.218Z,3.27
2019-05-15T16:35:31.391Z,2.37
2019-05-15T16:37:58.427Z,2.73
2019-05-15T16:40:24.874Z,2.90
2019-05-15T16:42:51.059Z,2.93
2019-05-15T16:45:17.739Z,3.23
2019-05-15T16:47:44.011Z,2.93
2019-05-15T16:50:10.411Z,2.43
2019-05-15T16:52:38.946Z,2.93
2019-05-15T16:55:05.486Z,2.63
2019-05-15T16:57:31.663Z,2.20
2019-05-15T16:59:58.610Z,2.70
2019-05-15T17:02:25.142Z,3.13
2019-05-15T17:04:51.442Z,2.80
2019-05-15T17:07:18.174Z,2.80
2019-05-15T17:09:44.719Z,2.60
2019-05-15T17:12:11.099Z,3.30
2019-05-15T17:14:38.872Z,2.57
2019-05-15T17:17:07.989Z,2.37
2019-05-15T17:19:34.467Z,2.83
2019-05-15T17:22:00.674Z,2.47
2019-05-15T17:24:26.870Z,2.93
2019-05-15T17:26:53.045Z,2.53
2019-05-15T17:29:19.421Z,2.27
2019-05-15T17:31:45.622Z,3.10
2019-05-15T17:34:11.798Z,2.10
2019-05-15T17:36:38.326Z,2.60
2019-05-15T17:39:05.280Z,2.43
2019-05-15T17:41:31.450Z,1.70
2019-05-15T17:43:57.930Z,2.17
2019-05-15T17:46:24.327Z,1.83
2019-05-15T17:48:55.313Z,1.97
2019-05-15T17:51:18.530Z,2.17
2019-05-15T17:53:44.740Z,2.73
2019-05-15T17:56:10.906Z,1.53
2019-05-15T17:58:38.126Z,1.57
2019-05-15T18:01:05.181Z,2.17
2019-05-15T18:03:31.354Z,1.80
2019-05-15T18:05:59.137Z,2.50
2019-05-15T18:08:25.530Z,2.10
2019-05-15T18:10:52.506Z,2.40
2019-05-15T18:13:18.679Z,1.63
2019-05-15T18:15:45.081Z,2.07
2019-05-15T18:18:12.029Z,2.10
2019-05-15T18:20:38.524Z,1.50
2019-05-15T18:23:04.893Z,1.83
2019-05-15T18:25:31.006Z,1.60
2019-05-15T18:27:59.273Z,2.80
2019-05-15T18:30:25.226Z,2.00
2019-05-15T18:32:52.200Z,2.07
2019-05-15T18:35:18.813Z,1.80
2019-05-15T18:37:45.283Z,2.23
2019-05-15T18:40:11.755Z,3.37
2019-05-15T18:42:38.983Z,2.20
2019-05-15T18:45:05.944Z,2.30
2019-05-15T18:47:32.118Z,2.00
2019-05-15T18:50:05.456Z,2.30
2019-05-15T18:52:28.734Z,2.60
2019-05-15T18:54:54.678Z,2.13
2019-05-15T18:57:21.046Z,2.53
2019-05-15T18:59:48.696Z,2.23
2019-05-15T19:02:15.022Z,2.93
2019-05-15T19:04:41.197Z,2.30
2019-05-15T19:07:08.884Z,2.67
2019-05-15T19:09:35.486Z,2.73
2019-05-15T19:12:01.658Z,3.40
2019-05-15T19:14:28.088Z,2.63
2019-05-15T19:16:54.244Z,2.90
2019-05-15T19:19:20.950Z,3.23
2019-05-15T19:21:48.898Z,2.40
2019-05-15T19:24:15.458Z,2.77
2019-05-15T19:26:41.639Z,3.20
2019-05-15T19:29:08.403Z,3.17
2019-05-15T19:31:34.723Z,2.63
2019-05-15T19:34:00.902Z,2.97
2019-05-15T19:36:27.739Z,2.80
2019-05-15T19:38:53.989Z,2.63
2019-05-15T19:41:20.179Z,3.13
2019-05-15T19:43:48.613Z,3.00
2019-05-15T19:46:14.584Z,2.80
2019-05-15T19:48:40.756Z,3.50
2019-05-15T19:51:09.051Z,2.70
2019-05-15T19:53:35.135Z,2.97
2019-05-15T19:56:01.317Z,2.97
2019-05-15T19:58:28.635Z,3.27
2019-05-15T20:00:54.986Z,2.93
2019-05-15T20:03:21.154Z,3.27
2019-05-15T20:05:48.613Z,3.50
2019-05-15T20:08:14.930Z,2.90
2019-05-15T20:10:41.107Z,2.87
2019-05-15T20:13:07.494Z,4.17
2019-05-15T20:15:33.870Z,3.30
2019-05-15T20:18:00.037Z,3.40
2019-05-15T20:20:28.325Z,2.73
2019-05-15T20:22:55.022Z,3.30
2019-05-15T20:25:21.199Z,2.57
2019-05-15T20:27:48.123Z,3.27
2019-05-15T20:30:14.687Z,2.87
2019-05-15T20:32:40.855Z,2.70
2019-05-15T20:35:08.667Z,3.07
2019-05-15T20:37:35.238Z,2.93
2019-05-15T20:40:03.042Z,3.50
2019-05-15T20:42:29.708Z,3.17
2019-05-15T20:44:57.832Z,3.77
2019-05-15T20:47:24.359Z,3.27
2019-05-15T20:49:50.600Z,5.00
2019-05-15T20:52:21.080Z,3.77
2019-05-15T20:54:44.937Z,3.00
2019-05-15T20:57:11.139Z,3.97
2019-05-15T20:59:38.718Z,3.23
2019-05-15T21:02:05.400Z,4.47
2019-05-15T21:04:32.507Z,4.40
2019-05-15T21:06:58.674Z,3.50
2019-05-15T21:09:24.847Z,4.40
2019-05-15T21:11:51.046Z,3.57
2019-05-15T21:14:17.218Z,3.97
2019-05-15T21:16:43.394Z,4.30
2019-05-15T21:19:09.656Z,4.53
2019-05-15T21:21:38.637Z,4.37
2019-05-15T21:24:05.327Z,4.17
2019-05-15T21:26:31.923Z,4.00
2019-05-15T21:28:58.674Z,4.40
2019-05-15T21:31:24.974Z,4.53
2019-05-15T21:33:51.170Z,5.13
2019-05-15T21:36:19.421Z,4.93
2019-05-15T21:38:47.905Z,3.93
2019-05-15T21:41:13.767Z,4.67
2019-05-15T21:43:40.137Z,4.37
2019-05-15T21:46:08.017Z,4.50
2019-05-15T21:48:34.446Z,4.67
2019-05-15T21:51:00.701Z,3.40
2019-05-15T21:53:28.715Z,4.63
2019-05-15T21:55:54.886Z,4.40
2019-05-15T21:58:21.054Z,4.70
2019-05-15T22:00:50.330Z,4.43
2019-05-15T22:03:19.752Z,4.97
2019-05-15T22:05:46.216Z,4.60
2019-05-15T22:08:14.506Z,4.73
2019-05-15T22:10:40.801Z,5.10
2019-05-15T22:13:07.085Z,4.47
2019-05-15T22:15:33.465Z,4.20
2019-05-15T22:17:59.667Z,3.67
2019-05-15T22:20:30.247Z,4.40
2019-05-15T22:22:54.446Z,4.23
2019-05-15T22:25:20.658Z,4.20
2019-05-15T22:27:48.700Z,5.20
2019-05-15T22:30:15.148Z,4.07
2019-05-15T22:32:41.781Z,4.50
2019-05-15T22:35:13.364Z,3.97
2019-05-15T22:37:38.749Z,5.53
2019-05-15T22:40:04.468Z,4.93
2019-05-15T22:42:31.824Z,3.90
2019-05-15T22:44:58.090Z,3.80
2019-05-15T22:47:24.290Z,4.60
2019-05-15T22:49:50.569Z,3.67
2019-05-15T22:52:18.425Z,3.63
2019-05-15T22:54:44.945Z,3.43
2019-05-15T22:57:11.122Z,4.30
2019-05-15T22:59:38.245Z,3.77
2019-05-15T23:02:04.789Z,3.53
2019-05-15T23:04:30.965Z,3.40
2019-05-15T23:06:57.452Z,3.53
2019-05-15T23:09:23.807Z,2.80
2019-05-15T23:11:50.034Z,3.80
2019-05-15T23:14:18.053Z,3.27
2019-05-15T23:16:44.211Z,3.77
2019-05-15T23:19:10.382Z,3.53
2019-05-15T23:21:37.864Z,3.03
2019-05-15T23:24:08.374Z,3.80
2019-05-15T23:26:34.298Z,3.63
2019-05-15T23:29:00.474Z,3.27
2019-05-15T23:31:28.057Z,3.63
2019-05-15T23:33:54.350Z,3.57
2019-05-15T23:36:20.525Z,3.80
2019-05-15T23:38:48.037Z,3.83
2019-05-15T23:41:14.406Z,4.20
2019-05-15T23:43:40.582Z,4.60
2019-05-15T23:46:08.053Z,4.37
2019-05-15T23:48:34.468Z,4.37
2019-05-15T23:51:00.651Z,4.40
2019-05-15T23:53:28.831Z,4.93
2019-05-15T23:55:54.955Z,4.07
2019-05-15T23:58:21.126Z,4.70
